sensor_id;sensor_type;location;lat;lon;timestamp;P1;durP1;ratioP1;P2;durP2;ratioP2
13012;SDS011;22580;57.670;12.006;2022-11-14T00:00:00;0.37;;;0.37;;
13012;SDS011;22580;57.670;12.006;2022-11-14T00:02:27;0.20;;;0.20;;
13012;SDS011;22580;57.670;12.006;2022-11-14T00:04:54;0.20;;;0.20;;
13012;SDS011;22580;57.670;12.006;2022-11-14T00:07:23;0.20;;;0.20;;
13012;SDS011;22580;57.670;12.006;2022-11-14T00:09:50;0.10;;;0.10;;
13012;SDS011;22580;57.670;12.006;2022-11-14T00:12:18;0.20;;;0.20;;
13012;SDS011;22580;57.670;12.006;2022-11-14T00:14:47;0.20;;;0.20;;
13012;SDS011;22580;57.670;12.006;2022-11-14T00:17:16;0.10;;;0.10;;
13012;SDS011;22580;57.670;12.006;2022-11-14T00:19:43;0.20;;;0.20;;
13012;SDS011;22580;57.670;12.006;2022-11-14T00:22:10;0.10;;;0.10;;
13012;SDS011;22580;57.670;12.006;2022-11-14T00:24:41;0.20;;;0.20;;
13012;SDS011;22580;57.670;12.006;2022-11-14T00:27:11;0.20;;;0.20;;
13012;SDS011;22580;57.670;12.006;2022-11-14T00:29:38;0.20;;;0.20;;
13012;SDS011;22580;57.670;12.006;2022-11-14T00:32:06;0.20;;;0.20;;
13012;SDS011;22580;57.670;12.006;2022-11-14T00:34:33;0.30;;;0.30;;
13012;SDS011;22580;57.670;12.006;2022-11-14T00:37:00;0.30;;;0.30;;
13012;SDS011;22580;57.670;12.006;2022-11-14T00:39:30;0.13;;;0.13;;
13012;SDS011;22580;57.670;12.006;2022-11-14T00:41:59;0.30;;;0.30;;
13012;SDS011;22580;57.670;12.006;2022-11-14T00:44:29;0.10;;;0.10;;
13012;SDS011;22580;57.670;12.006;2022-11-14T00:47:01;0.30;;;0.13;;
13012;SDS011;22580;57.670;12.006;2022-11-14T00:49:28;0.10;;;0.10;;
13012;SDS011;22580;57.670;12.006;2022-11-14T00:52:07;0.10;;;0.10;;
13012;SDS011;22580;57.670;12.006;2022-11-14T00:54:35;0.30;;;0.20;;
13012;SDS011;22580;57.670;12.006;2022-11-14T00:57:03;0.20;;;0.20;;
13012;SDS011;22580;57.670;12.006;2022-11-14T00:59:30;0.20;;;0.20;;
13012;SDS011;22580;57.670;12.006;2022-11-14T01:01:57;0.17;;;0.13;;
13012;SDS011;22580;57.670;12.006;2022-11-14T01:04:30;0.20;;;0.20;;
13012;SDS011;22580;57.670;12.006;2022-11-14T01:07:04;0.10;;;0.10;;
13012;SDS011;22580;57.670;12.006;2022-11-14T01:09:31;0.27;;;0.17;;
13012;SDS011;22580;57.670;12.006;2022-11-14T01:11:58;0.20;;;0.20;;
13012;SDS011;22580;57.670;12.006;2022-11-14T01:14:27;0.63;;;0.10;;
13012;SDS011;22580;57.670;12.006;2022-11-14T01:17:01;0.20;;;0.20;;
13012;SDS011;22580;57.670;12.006;2022-11-14T01:19:28;0.10;;;0.10;;
13012;SDS011;22580;57.670;12.006;2022-11-14T01:21:55;0.03;;;0.03;;
13012;SDS011;22580;57.670;12.006;2022-11-14T01:24:22;0.10;;;0.10;;
13012;SDS011;22580;57.670;12.006;2022-11-14T01:26:51;0.10;;;0.10;;
13012;SDS011;22580;57.670;12.006;2022-11-14T01:29:20;0.10;;;0.10;;
13012;SDS011;22580;57.670;12.006;2022-11-14T01:31:49;0.10;;;0.10;;
13012;SDS011;22580;57.670;12.006;2022-11-14T01:34:28;0.10;;;0.10;;
13012;SDS011;22580;57.670;12.006;2022-11-14T01:36:55;0.20;;;0.20;;
13012;SDS011;22580;57.670;12.006;2022-11-14T01:39:22;0.47;;;0.20;;
13012;SDS011;22580;57.670;12.006;2022-11-14T01:41:51;0.10;;;0.10;;
13012;SDS011;22580;57.670;12.006;2022-11-14T01:47:10;0.13;;;0.13;;
13012;SDS011;22580;57.670;12.006;2022-11-14T01:49:43;0.13;;;0.13;;
13012;SDS011;22580;57.670;12.006;2022-11-14T01:52:15;0.10;;;0.10;;
13012;SDS011;22580;57.670;12.006;2022-11-14T01:54:46;0.20;;;0.20;;
13012;SDS011;22580;57.670;12.006;2022-11-14T01:57:19;0.20;;;0.20;;
13012;SDS011;22580;57.670;12.006;2022-11-14T01:59:51;0.20;;;0.20;;
13012;SDS011;22580;57.670;12.006;2022-11-14T02:02:24;0.20;;;0.20;;
13012;SDS011;22580;57.670;12.006;2022-11-14T02:04:53;0.10;;;0.10;;
13012;SDS011;22580;57.670;12.006;2022-11-14T02:07:26;0.20;;;0.10;;
13012;SDS011;22580;57.670;12.006;2022-11-14T02:09:56;0.20;;;0.13;;
13012;SDS011;22580;57.670;12.006;2022-11-14T02:12:31;0.10;;;0.10;;
13012;SDS011;22580;57.670;12.006;2022-11-14T02:15:04;0.10;;;0.10;;
13012;SDS011;22580;57.670;12.006;2022-11-14T02:17:34;0.00;;;0.00;;
13012;SDS011;22580;57.670;12.006;2022-11-14T02:20:14;0.00;;;0.00;;
13012;SDS011;22580;57.670;12.006;2022-11-14T02:22:46;0.10;;;0.10;;
13012;SDS011;22580;57.670;12.006;2022-11-14T02:25:14;0.43;;;0.20;;
13012;SDS011;22580;57.670;12.006;2022-11-14T02:27:46;0.10;;;0.10;;
13012;SDS011;22580;57.670;12.006;2022-11-14T02:30:14;0.10;;;0.10;;
13012;SDS011;22580;57.670;12.006;2022-11-14T02:32:42;0.03;;;0.03;;
13012;SDS011;22580;57.670;12.006;2022-11-14T02:35:11;0.10;;;0.00;;
13012;SDS011;22580;57.670;12.006;2022-11-14T02:37:42;0.00;;;0.00;;
13012;SDS011;22580;57.670;12.006;2022-11-14T02:40:09;0.40;;;0.10;;
13012;SDS011;22580;57.670;12.006;2022-11-14T02:42:37;0.10;;;0.10;;
13012;SDS011;22580;57.670;12.006;2022-11-14T02:45:05;0.10;;;0.10;;
13012;SDS011;22580;57.670;12.006;2022-11-14T02:47:36;0.10;;;0.10;;
13012;SDS011;22580;57.670;12.006;2022-11-14T02:50:03;0.07;;;0.07;;
13012;SDS011;22580;57.670;12.006;2022-11-14T02:52:31;0.10;;;0.10;;
13012;SDS011;22580;57.670;12.006;2022-11-14T02:54:59;0.10;;;0.10;;
13012;SDS011;22580;57.670;12.006;2022-11-14T02:57:29;0.10;;;0.10;;
13012;SDS011;22580;57.670;12.006;2022-11-14T02:59:59;0.10;;;0.10;;
13012;SDS011;22580;57.670;12.006;2022-11-14T03:02:30;0.10;;;0.10;;
13012;SDS011;22580;57.670;12.006;2022-11-14T03:05:02;0.00;;;0.00;;
13012;SDS011;22580;57.670;12.006;2022-11-14T03:07:31;0.00;;;0.00;;
13012;SDS011;22580;57.670;12.006;2022-11-14T03:10:00;0.00;;;0.00;;
13012;SDS011;22580;57.670;12.006;2022-11-14T03:12:28;0.10;;;0.00;;
13012;SDS011;22580;57.670;12.006;2022-11-14T03:14:58;0.00;;;0.00;;
13012;SDS011;22580;57.670;12.006;2022-11-14T03:17:30;0.00;;;0.00;;
13012;SDS011;22580;57.670;12.006;2022-11-14T03:20:06;0.00;;;0.00;;
13012;SDS011;22580;57.670;12.006;2022-11-14T03:22:34;0.00;;;0.00;;
13012;SDS011;22580;57.670;12.006;2022-11-14T03:25:06;0.20;;;0.10;;
13012;SDS011;22580;57.670;12.006;2022-11-14T03:27:34;0.00;;;0.00;;
13012;SDS011;22580;57.670;12.006;2022-11-14T03:30:01;0.00;;;0.00;;
13012;SDS011;22580;57.670;12.006;2022-11-14T03:32:29;0.03;;;0.00;;
13012;SDS011;22580;57.670;12.006;2022-11-14T03:34:58;0.00;;;0.00;;
13012;SDS011;22580;57.670;12.006;2022-11-14T03:37:27;0.10;;;0.00;;
13012;SDS011;22580;57.670;12.006;2022-11-14T03:39:54;0.00;;;0.00;;
13012;SDS011;22580;57.670;12.006;2022-11-14T03:42:23;0.27;;;0.07;;
13012;SDS011;22580;57.670;12.006;2022-11-14T03:44:50;0.10;;;0.10;;
13012;SDS011;22580;57.670;12.006;2022-11-14T03:47:23;0.10;;;0.10;;
13012;SDS011;22580;57.670;12.006;2022-11-14T03:49:50;0.53;;;0.00;;
13012;SDS011;22580;57.670;12.006;2022-11-14T03:52:19;0.00;;;0.00;;
13012;SDS011;22580;57.670;12.006;2022-11-14T03:54:46;0.00;;;0.00;;
13012;SDS011;22580;57.670;12.006;2022-11-14T03:57:14;0.10;;;0.10;;
13012;SDS011;22580;57.670;12.006;2022-11-14T03:59:42;0.10;;;0.10;;
13012;SDS011;22580;57.670;12.006;2022-11-14T04:02:12;0.00;;;0.00;;
13012;SDS011;22580;57.670;12.006;2022-11-14T04:04:39;0.10;;;0.10;;
13012;SDS011;22580;57.670;12.006;2022-11-14T04:07:13;0.00;;;0.00;;
13012;SDS011;22580;57.670;12.006;2022-11-14T04:09:42;0.10;;;0.10;;
13012;SDS011;22580;57.670;12.006;2022-11-14T04:12:13;0.10;;;0.10;;
13012;SDS011;22580;57.670;12.006;2022-11-14T04:14:43;0.00;;;0.00;;
13012;SDS011;22580;57.670;12.006;2022-11-14T04:17:10;0.13;;;0.13;;
13012;SDS011;22580;57.670;12.006;2022-11-14T04:19:39;0.00;;;0.00;;
13012;SDS011;22580;57.670;12.006;2022-11-14T04:22:06;0.00;;;0.00;;
13012;SDS011;22580;57.670;12.006;2022-11-14T04:24:33;0.17;;;0.17;;
13012;SDS011;22580;57.670;12.006;2022-11-14T04:27:00;0.10;;;0.10;;
13012;SDS011;22580;57.670;12.006;2022-11-14T04:29:28;0.00;;;0.00;;
13012;SDS011;22580;57.670;12.006;2022-11-14T04:31:58;0.10;;;0.10;;
13012;SDS011;22580;57.670;12.006;2022-11-14T04:34:25;0.00;;;0.00;;
13012;SDS011;22580;57.670;12.006;2022-11-14T04:36:52;0.00;;;0.00;;
13012;SDS011;22580;57.670;12.006;2022-11-14T04:39:19;0.00;;;0.00;;
13012;SDS011;22580;57.670;12.006;2022-11-14T04:41:52;0.00;;;0.00;;
13012;SDS011;22580;57.670;12.006;2022-11-14T04:44:19;0.07;;;0.07;;
13012;SDS011;22580;57.670;12.006;2022-11-14T04:46:53;0.00;;;0.00;;
13012;SDS011;22580;57.670;12.006;2022-11-14T04:49:22;0.10;;;0.00;;
13012;SDS011;22580;57.670;12.006;2022-11-14T04:51:51;0.00;;;0.00;;
13012;SDS011;22580;57.670;12.006;2022-11-14T04:54:22;0.10;;;0.10;;
13012;SDS011;22580;57.670;12.006;2022-11-14T04:56:53;0.10;;;0.10;;
13012;SDS011;22580;57.670;12.006;2022-11-14T04:59:20;0.00;;;0.00;;
13012;SDS011;22580;57.670;12.006;2022-11-14T05:01:48;0.73;;;0.20;;
13012;SDS011;22580;57.670;12.006;2022-11-14T05:04:15;0.00;;;0.00;;
13012;SDS011;22580;57.670;12.006;2022-11-14T05:06:44;0.10;;;0.10;;
13012;SDS011;22580;57.670;12.006;2022-11-14T05:09:10;0.00;;;0.00;;
13012;SDS011;22580;57.670;12.006;2022-11-14T05:11:38;0.00;;;0.00;;
13012;SDS011;22580;57.670;12.006;2022-11-14T05:14:05;0.00;;;0.00;;
13012;SDS011;22580;57.670;12.006;2022-11-14T05:16:35;0.00;;;0.00;;
13012;SDS011;22580;57.670;12.006;2022-11-14T05:19:03;0.00;;;0.00;;
13012;SDS011;22580;57.670;12.006;2022-11-14T05:21:32;0.00;;;0.00;;
13012;SDS011;22580;57.670;12.006;2022-11-14T05:24:05;0.00;;;0.00;;
13012;SDS011;22580;57.670;12.006;2022-11-14T05:26:34;0.10;;;0.10;;
13012;SDS011;22580;57.670;12.006;2022-11-14T05:29:01;0.20;;;0.10;;
13012;SDS011;22580;57.670;12.006;2022-11-14T05:31:29;0.00;;;0.00;;
13012;SDS011;22580;57.670;12.006;2022-11-14T05:33:56;0.10;;;0.10;;
13012;SDS011;22580;57.670;12.006;2022-11-14T05:36:23;0.10;;;0.10;;
13012;SDS011;22580;57.670;12.006;2022-11-14T05:38:50;0.10;;;0.10;;
13012;SDS011;22580;57.670;12.006;2022-11-14T05:41:23;0.10;;;0.10;;
13012;SDS011;22580;57.670;12.006;2022-11-14T05:43:52;0.10;;;0.10;;
13012;SDS011;22580;57.670;12.006;2022-11-14T05:46:21;0.10;;;0.10;;
13012;SDS011;22580;57.670;12.006;2022-11-14T05:48:48;0.10;;;0.10;;
13012;SDS011;22580;57.670;12.006;2022-11-14T05:51:16;0.00;;;0.00;;
13012;SDS011;22580;57.670;12.006;2022-11-14T05:53:43;0.10;;;0.10;;
13012;SDS011;22580;57.670;12.006;2022-11-14T05:56:12;0.40;;;0.10;;
13012;SDS011;22580;57.670;12.006;2022-11-14T05:58:45;0.10;;;0.10;;
13012;SDS011;22580;57.670;12.006;2022-11-14T06:01:13;0.00;;;0.00;;
13012;SDS011;22580;57.670;12.006;2022-11-14T06:03:44;0.10;;;0.03;;
13012;SDS011;22580;57.670;12.006;2022-11-14T06:06:16;0.23;;;0.10;;
13012;SDS011;22580;57.670;12.006;2022-11-14T06:08:47;0.00;;;0.00;;
13012;SDS011;22580;57.670;12.006;2022-11-14T06:11:14;0.00;;;0.00;;
13012;SDS011;22580;57.670;12.006;2022-11-14T06:13:44;0.00;;;0.00;;
13012;SDS011;22580;57.670;12.006;2022-11-14T06:16:12;0.00;;;0.00;;
13012;SDS011;22580;57.670;12.006;2022-11-14T06:18:42;0.00;;;0.00;;
13012;SDS011;22580;57.670;12.006;2022-11-14T06:21:10;0.20;;;0.00;;
13012;SDS011;22580;57.670;12.006;2022-11-14T06:23:45;0.10;;;0.03;;
13012;SDS011;22580;57.670;12.006;2022-11-14T06:26:14;0.00;;;0.00;;
13012;SDS011;22580;57.670;12.006;2022-11-14T06:28:50;0.00;;;0.00;;
13012;SDS011;22580;57.670;12.006;2022-11-14T06:31:21;0.10;;;0.10;;
13012;SDS011;22580;57.670;12.006;2022-11-14T06:33:55;0.10;;;0.10;;
13012;SDS011;22580;57.670;12.006;2022-11-14T06:36:24;0.00;;;0.00;;
13012;SDS011;22580;57.670;12.006;2022-11-14T06:38:51;0.60;;;0.20;;
13012;SDS011;22580;57.670;12.006;2022-11-14T06:41:20;0.70;;;0.70;;
13012;SDS011;22580;57.670;12.006;2022-11-14T06:43:54;0.30;;;0.30;;
13012;SDS011;22580;57.670;12.006;2022-11-14T06:46:23;0.20;;;0.20;;
13012;SDS011;22580;57.670;12.006;2022-11-14T06:48:52;0.50;;;0.20;;
13012;SDS011;22580;57.670;12.006;2022-11-14T06:51:25;0.10;;;0.10;;
13012;SDS011;22580;57.670;12.006;2022-11-14T06:53:52;0.00;;;0.00;;
13012;SDS011;22580;57.670;12.006;2022-11-14T06:56:24;0.17;;;0.13;;
13012;SDS011;22580;57.670;12.006;2022-11-14T06:58:53;0.10;;;0.10;;
13012;SDS011;22580;57.670;12.006;2022-11-14T07:01:23;0.10;;;0.10;;
13012;SDS011;22580;57.670;12.006;2022-11-14T07:03:53;0.10;;;0.10;;
13012;SDS011;22580;57.670;12.006;2022-11-14T07:06:23;0.10;;;0.10;;
13012;SDS011;22580;57.670;12.006;2022-11-14T07:08:51;0.10;;;0.10;;
13012;SDS011;22580;57.670;12.006;2022-11-14T07:11:20;0.10;;;0.10;;
13012;SDS011;22580;57.670;12.006;2022-11-14T07:13:50;0.00;;;0.00;;
13012;SDS011;22580;57.670;12.006;2022-11-14T07:16:20;0.10;;;0.10;;
13012;SDS011;22580;57.670;12.006;2022-11-14T07:18:56;0.10;;;0.10;;
13012;SDS011;22580;57.670;12.006;2022-11-14T07:21:24;0.10;;;0.10;;
13012;SDS011;22580;57.670;12.006;2022-11-14T07:23:54;0.20;;;0.20;;
13012;SDS011;22580;57.670;12.006;2022-11-14T07:26:22;0.30;;;0.20;;
13012;SDS011;22580;57.670;12.006;2022-11-14T07:28:49;0.20;;;0.20;;
13012;SDS011;22580;57.670;12.006;2022-11-14T07:31:17;0.10;;;0.10;;
13012;SDS011;22580;57.670;12.006;2022-11-14T07:33:46;0.10;;;0.10;;
13012;SDS011;22580;57.670;12.006;2022-11-14T07:36:14;0.10;;;0.10;;
13012;SDS011;22580;57.670;12.006;2022-11-14T07:38:41;0.10;;;0.10;;
13012;SDS011;22580;57.670;12.006;2022-11-14T07:41:09;0.10;;;0.10;;
13012;SDS011;22580;57.670;12.006;2022-11-14T07:43:37;0.00;;;0.00;;
13012;SDS011;22580;57.670;12.006;2022-11-14T07:46:06;0.10;;;0.10;;
13012;SDS011;22580;57.670;12.006;2022-11-14T07:48:38;0.20;;;0.20;;
13012;SDS011;22580;57.670;12.006;2022-11-14T07:51:08;0.03;;;0.03;;
13012;SDS011;22580;57.670;12.006;2022-11-14T07:53:38;0.17;;;0.17;;
13012;SDS011;22580;57.670;12.006;2022-11-14T07:56:06;0.10;;;0.10;;
13012;SDS011;22580;57.670;12.006;2022-11-14T07:58:35;0.20;;;0.20;;
13012;SDS011;22580;57.670;12.006;2022-11-14T08:01:02;0.30;;;0.30;;
13012;SDS011;22580;57.670;12.006;2022-11-14T08:03:34;0.10;;;0.10;;
13012;SDS011;22580;57.670;12.006;2022-11-14T08:06:03;0.10;;;0.10;;
13012;SDS011;22580;57.670;12.006;2022-11-14T08:08:35;0.03;;;0.03;;
13012;SDS011;22580;57.670;12.006;2022-11-14T08:11:04;0.10;;;0.10;;
13012;SDS011;22580;57.670;12.006;2022-11-14T08:13:33;0.00;;;0.00;;
13012;SDS011;22580;57.670;12.006;2022-11-14T08:16:04;0.10;;;0.10;;
13012;SDS011;22580;57.670;12.006;2022-11-14T08:18:32;0.10;;;0.10;;
13012;SDS011;22580;57.670;12.006;2022-11-14T08:21:02;0.10;;;0.10;;
13012;SDS011;22580;57.670;12.006;2022-11-14T08:23:30;0.20;;;0.20;;
13012;SDS011;22580;57.670;12.006;2022-11-14T08:25:59;0.20;;;0.20;;
13012;SDS011;22580;57.670;12.006;2022-11-14T08:28:26;0.13;;;0.13;;
13012;SDS011;22580;57.670;12.006;2022-11-14T08:30:57;0.10;;;0.10;;
13012;SDS011;22580;57.670;12.006;2022-11-14T08:33:28;0.23;;;0.20;;
13012;SDS011;22580;57.670;12.006;2022-11-14T08:35:58;0.10;;;0.10;;
13012;SDS011;22580;57.670;12.006;2022-11-14T08:38:34;0.00;;;0.00;;
13012;SDS011;22580;57.670;12.006;2022-11-14T08:41:03;0.10;;;0.10;;
13012;SDS011;22580;57.670;12.006;2022-11-14T08:43:32;0.00;;;0.00;;
13012;SDS011;22580;57.670;12.006;2022-11-14T08:45:59;0.10;;;0.10;;
13012;SDS011;22580;57.670;12.006;2022-11-14T08:48:29;0.10;;;0.10;;
13012;SDS011;22580;57.670;12.006;2022-11-14T08:50:57;0.73;;;0.30;;
13012;SDS011;22580;57.670;12.006;2022-11-14T08:53:28;0.40;;;0.40;;
13012;SDS011;22580;57.670;12.006;2022-11-14T08:55:55;0.30;;;0.30;;
13012;SDS011;22580;57.670;12.006;2022-11-14T08:58:25;0.53;;;0.40;;
13012;SDS011;22580;57.670;12.006;2022-11-14T09:00:53;0.30;;;0.30;;
13012;SDS011;22580;57.670;12.006;2022-11-14T09:03:24;0.20;;;0.20;;
13012;SDS011;22580;57.670;12.006;2022-11-14T09:05:51;0.40;;;0.40;;
13012;SDS011;22580;57.670;12.006;2022-11-14T09:08:21;0.40;;;0.40;;
13012;SDS011;22580;57.670;12.006;2022-11-14T09:10:48;0.30;;;0.30;;
13012;SDS011;22580;57.670;12.006;2022-11-14T09:13:15;0.13;;;0.13;;
13012;SDS011;22580;57.670;12.006;2022-11-14T09:15:44;0.40;;;0.20;;
13012;SDS011;22580;57.670;12.006;2022-11-14T09:18:13;0.17;;;0.17;;
13012;SDS011;22580;57.670;12.006;2022-11-14T09:20:41;0.20;;;0.20;;
13012;SDS011;22580;57.670;12.006;2022-11-14T09:23:12;0.30;;;0.30;;
13012;SDS011;22580;57.670;12.006;2022-11-14T09:25:41;0.30;;;0.30;;
13012;SDS011;22580;57.670;12.006;2022-11-14T09:28:08;0.20;;;0.20;;
13012;SDS011;22580;57.670;12.006;2022-11-14T09:30:35;0.20;;;0.20;;
13012;SDS011;22580;57.670;12.006;2022-11-14T09:33:05;0.10;;;0.10;;
13012;SDS011;22580;57.670;12.006;2022-11-14T09:35:32;0.17;;;0.17;;
13012;SDS011;22580;57.670;12.006;2022-11-14T09:38:01;0.10;;;0.10;;
13012;SDS011;22580;57.670;12.006;2022-11-14T09:40:32;1.10;;;0.30;;
13012;SDS011;22580;57.670;12.006;2022-11-14T09:43:18;0.30;;;0.30;;
13012;SDS011;22580;57.670;12.006;2022-11-14T09:45:59;0.43;;;0.43;;
13012;SDS011;22580;57.670;12.006;2022-11-14T09:48:30;0.40;;;0.40;;
13012;SDS011;22580;57.670;12.006;2022-11-14T09:51:03;0.30;;;0.30;;
13012;SDS011;22580;57.670;12.006;2022-11-14T09:53:34;0.30;;;0.30;;
13012;SDS011;22580;57.670;12.006;2022-11-14T09:56:10;0.30;;;0.30;;
13012;SDS011;22580;57.670;12.006;2022-11-14T09:58:39;0.33;;;0.30;;
13012;SDS011;22580;57.670;12.006;2022-11-14T10:01:10;0.37;;;0.37;;
13012;SDS011;22580;57.670;12.006;2022-11-14T10:03:48;0.13;;;0.13;;
13012;SDS011;22580;57.670;12.006;2022-11-14T10:06:26;0.27;;;0.27;;
13012;SDS011;22580;57.670;12.006;2022-11-14T10:09:06;0.30;;;0.30;;
13012;SDS011;22580;57.670;12.006;2022-11-14T10:11:55;0.30;;;0.30;;
13012;SDS011;22580;57.670;12.006;2022-11-14T10:14:44;0.30;;;0.30;;
13012;SDS011;22580;57.670;12.006;2022-11-14T10:17:31;0.40;;;0.40;;
13012;SDS011;22580;57.670;12.006;2022-11-14T10:20:12;0.57;;;0.50;;
13012;SDS011;22580;57.670;12.006;2022-11-14T10:22:53;0.30;;;0.30;;
13012;SDS011;22580;57.670;12.006;2022-11-14T10:25:33;0.63;;;0.50;;
13012;SDS011;22580;57.670;12.006;2022-11-14T10:31:22;0.30;;;0.30;;
13012;SDS011;22580;57.670;12.006;2022-11-14T10:33:58;0.33;;;0.33;;
13012;SDS011;22580;57.670;12.006;2022-11-14T10:36:38;0.37;;;0.37;;
13012;SDS011;22580;57.670;12.006;2022-11-14T10:39:16;0.40;;;0.40;;
13012;SDS011;22580;57.670;12.006;2022-11-14T10:41:48;0.60;;;0.50;;
13012;SDS011;22580;57.670;12.006;2022-11-14T10:44:24;0.70;;;0.70;;
13012;SDS011;22580;57.670;12.006;2022-11-14T10:47:06;0.70;;;0.70;;
13012;SDS011;22580;57.670;12.006;2022-11-14T10:49:44;0.60;;;0.60;;
13012;SDS011;22580;57.670;12.006;2022-11-14T10:52:21;0.50;;;0.40;;
13012;SDS011;22580;57.670;12.006;2022-11-14T10:55:02;0.50;;;0.50;;
13012;SDS011;22580;57.670;12.006;2022-11-14T10:57:32;0.53;;;0.53;;
13012;SDS011;22580;57.670;12.006;2022-11-14T11:00:09;0.50;;;0.50;;
13012;SDS011;22580;57.670;12.006;2022-11-14T11:02:46;0.47;;;0.47;;
13012;SDS011;22580;57.670;12.006;2022-11-14T11:05:15;0.50;;;0.50;;
13012;SDS011;22580;57.670;12.006;2022-11-14T11:07:46;0.43;;;0.43;;
13012;SDS011;22580;57.670;12.006;2022-11-14T11:10:31;0.50;;;0.50;;
13012;SDS011;22580;57.670;12.006;2022-11-14T11:13:29;0.50;;;0.50;;
13012;SDS011;22580;57.670;12.006;2022-11-14T11:16:08;0.50;;;0.50;;
13012;SDS011;22580;57.670;12.006;2022-11-14T11:18:49;0.70;;;0.70;;
13012;SDS011;22580;57.670;12.006;2022-11-14T11:21:22;0.50;;;0.50;;
13012;SDS011;22580;57.670;12.006;2022-11-14T11:23:56;0.60;;;0.60;;
13012;SDS011;22580;57.670;12.006;2022-11-14T11:26:26;0.73;;;0.73;;
13012;SDS011;22580;57.670;12.006;2022-11-14T11:29:01;0.50;;;0.50;;
13012;SDS011;22580;57.670;12.006;2022-11-14T11:31:50;0.70;;;0.70;;
13012;SDS011;22580;57.670;12.006;2022-11-14T11:34:24;0.60;;;0.60;;
13012;SDS011;22580;57.670;12.006;2022-11-14T11:36:56;0.73;;;0.60;;
13012;SDS011;22580;57.670;12.006;2022-11-14T11:39:39;0.70;;;0.70;;
13012;SDS011;22580;57.670;12.006;2022-11-14T11:42:16;0.90;;;0.73;;
13012;SDS011;22580;57.670;12.006;2022-11-14T11:44:48;0.70;;;0.70;;
13012;SDS011;22580;57.670;12.006;2022-11-14T11:47:22;0.70;;;0.70;;
13012;SDS011;22580;57.670;12.006;2022-11-14T11:49:52;0.60;;;0.60;;
13012;SDS011;22580;57.670;12.006;2022-11-14T11:52:22;0.80;;;0.80;;
13012;SDS011;22580;57.670;12.006;2022-11-14T11:55:01;1.20;;;0.70;;
13012;SDS011;22580;57.670;12.006;2022-11-14T11:57:41;0.80;;;0.80;;
13012;SDS011;22580;57.670;12.006;2022-11-14T12:00:13;0.83;;;0.70;;
13012;SDS011;22580;57.670;12.006;2022-11-14T12:02:43;0.70;;;0.70;;
13012;SDS011;22580;57.670;12.006;2022-11-14T12:05:15;0.90;;;0.90;;
13012;SDS011;22580;57.670;12.006;2022-11-14T12:07:45;0.70;;;0.70;;
13012;SDS011;22580;57.670;12.006;2022-11-14T12:10:24;0.60;;;0.60;;
13012;SDS011;22580;57.670;12.006;2022-11-14T12:16:17;0.90;;;0.90;;
13012;SDS011;22580;57.670;12.006;2022-11-14T12:19:08;0.77;;;0.77;;
13012;SDS011;22580;57.670;12.006;2022-11-14T12:22:09;0.90;;;0.90;;
13012;SDS011;22580;57.670;12.006;2022-11-14T12:25:08;0.93;;;0.90;;
13012;SDS011;22580;57.670;12.006;2022-11-14T12:28:05;0.73;;;0.73;;
13012;SDS011;22580;57.670;12.006;2022-11-14T12:30:55;0.90;;;0.90;;
13012;SDS011;22580;57.670;12.006;2022-11-14T12:33:25;0.87;;;0.87;;
13012;SDS011;22580;57.670;12.006;2022-11-14T12:35:57;0.67;;;0.67;;
13012;SDS011;22580;57.670;12.006;2022-11-14T12:38:33;0.80;;;0.80;;
13012;SDS011;22580;57.670;12.006;2022-11-14T12:41:14;0.90;;;0.90;;
13012;SDS011;22580;57.670;12.006;2022-11-14T12:43:53;1.30;;;1.20;;
13012;SDS011;22580;57.670;12.006;2022-11-14T12:49:56;1.37;;;1.17;;
13012;SDS011;22580;57.670;12.006;2022-11-14T12:52:51;1.40;;;1.30;;
13012;SDS011;22580;57.670;12.006;2022-11-14T12:58:30;1.57;;;1.47;;
13012;SDS011;22580;57.670;12.006;2022-11-14T13:01:23;1.20;;;1.20;;
13012;SDS011;22580;57.670;12.006;2022-11-14T13:04:08;1.53;;;1.43;;
13012;SDS011;22580;57.670;12.006;2022-11-14T13:06:49;1.50;;;1.40;;
13012;SDS011;22580;57.670;12.006;2022-11-14T13:09:37;1.40;;;1.30;;
13012;SDS011;22580;57.670;12.006;2022-11-14T13:12:28;1.70;;;1.60;;
13012;SDS011;22580;57.670;12.006;2022-11-14T13:15:24;1.57;;;1.47;;
13012;SDS011;22580;57.670;12.006;2022-11-14T13:18:24;1.40;;;1.30;;
13012;SDS011;22580;57.670;12.006;2022-11-14T13:21:17;1.40;;;1.30;;
13012;SDS011;22580;57.670;12.006;2022-11-14T13:24:11;1.30;;;1.30;;
13012;SDS011;22580;57.670;12.006;2022-11-14T13:26:47;1.30;;;1.20;;
13012;SDS011;22580;57.670;12.006;2022-11-14T13:35:35;1.27;;;1.17;;
13012;SDS011;22580;57.670;12.006;2022-11-14T13:38:20;1.50;;;1.40;;
13012;SDS011;22580;57.670;12.006;2022-11-14T13:47:56;1.67;;;1.57;;
13012;SDS011;22580;57.670;12.006;2022-11-14T13:50:49;1.60;;;1.50;;
13012;SDS011;22580;57.670;12.006;2022-11-14T13:53:24;1.40;;;1.33;;
13012;SDS011;22580;57.670;12.006;2022-11-14T13:55:58;1.97;;;1.87;;
13012;SDS011;22580;57.670;12.006;2022-11-14T13:58:37;1.90;;;1.80;;
13012;SDS011;22580;57.670;12.006;2022-11-14T14:01:21;1.50;;;1.40;;
13012;SDS011;22580;57.670;12.006;2022-11-14T14:04:05;1.60;;;1.50;;
13012;SDS011;22580;57.670;12.006;2022-11-14T14:06:47;1.70;;;1.60;;
13012;SDS011;22580;57.670;12.006;2022-11-14T14:09:31;1.50;;;1.40;;
13012;SDS011;22580;57.670;12.006;2022-11-14T14:12:12;1.30;;;1.20;;
13012;SDS011;22580;57.670;12.006;2022-11-14T14:14:56;0.93;;;0.93;;
13012;SDS011;22580;57.670;12.006;2022-11-14T14:17:41;1.23;;;1.13;;
13012;SDS011;22580;57.670;12.006;2022-11-14T14:20:26;1.40;;;1.30;;
13012;SDS011;22580;57.670;12.006;2022-11-14T14:23:07;0.80;;;0.80;;
13012;SDS011;22580;57.670;12.006;2022-11-14T14:25:51;1.30;;;1.20;;
13012;SDS011;22580;57.670;12.006;2022-11-14T14:28:32;1.03;;;1.00;;
13012;SDS011;22580;57.670;12.006;2022-11-14T14:31:11;1.20;;;1.10;;
13012;SDS011;22580;57.670;12.006;2022-11-14T14:33:44;1.10;;;1.10;;
13012;SDS011;22580;57.670;12.006;2022-11-14T14:36:16;0.90;;;0.90;;
13012;SDS011;22580;57.670;12.006;2022-11-14T14:38:49;1.30;;;1.20;;
13012;SDS011;22580;57.670;12.006;2022-11-14T14:41:17;1.30;;;1.20;;
13012;SDS011;22580;57.670;12.006;2022-11-14T14:43:49;1.43;;;1.33;;
13012;SDS011;22580;57.670;12.006;2022-11-14T14:46:28;1.53;;;1.43;;
13012;SDS011;22580;57.670;12.006;2022-11-14T14:48:56;1.50;;;1.40;;
13012;SDS011;22580;57.670;12.006;2022-11-14T14:51:28;1.73;;;1.63;;
13012;SDS011;22580;57.670;12.006;2022-11-14T14:53:59;1.20;;;1.10;;
13012;SDS011;22580;57.670;12.006;2022-11-14T14:56:36;1.40;;;1.30;;
13012;SDS011;22580;57.670;12.006;2022-11-14T14:59:16;1.10;;;1.10;;
13012;SDS011;22580;57.670;12.006;2022-11-14T15:01:44;0.90;;;0.90;;
13012;SDS011;22580;57.670;12.006;2022-11-14T15:04:12;1.13;;;1.13;;
13012;SDS011;22580;57.670;12.006;2022-11-14T15:06:43;1.10;;;1.10;;
13012;SDS011;22580;57.670;12.006;2022-11-14T15:09:18;1.00;;;1.00;;
13012;SDS011;22580;57.670;12.006;2022-11-14T15:11:48;1.10;;;1.00;;
13012;SDS011;22580;57.670;12.006;2022-11-14T15:14:21;1.23;;;1.10;;
13012;SDS011;22580;57.670;12.006;2022-11-14T15:16:54;1.30;;;1.20;;
13012;SDS011;22580;57.670;12.006;2022-11-14T15:19:24;1.17;;;1.07;;
13012;SDS011;22580;57.670;12.006;2022-11-14T15:25:13;1.60;;;1.50;;
13012;SDS011;22580;57.670;12.006;2022-11-14T15:27:45;1.60;;;1.50;;
13012;SDS011;22580;57.670;12.006;2022-11-14T15:30:21;1.80;;;1.70;;
13012;SDS011;22580;57.670;12.006;2022-11-14T15:32:57;1.60;;;1.50;;
13012;SDS011;22580;57.670;12.006;2022-11-14T15:35:39;1.20;;;1.20;;